Logan - 24 Hour Table
Date & TimeSolar
Radiation
(W/m²)
Wind
Speed
(mph)
Wind
Direction
(degrees)
Air
Temperature
(°F)
Relative
Humidity
(%)
Precipitation
(inches)
Barometric
Pressure
(inHg)
2017/06/27 01:00 0 4.7 51 69.8 43 0.00 29.89
2017/06/27 00:00 0 5.2 348 69.2 46 0.00 29.90
2017/06/26 23:00 0 4.9 131 79.4 37 0.00 29.88
2017/06/26 22:00 0 7.2 13 81.9 22 0.00 29.88
2017/06/26 21:00 0 7.3 263 80.0 23 0.00 29.90
2017/06/26 20:00 36 3.5 34 83.8 42 0.00 29.90
2017/06/26 19:00 171 2.8 357 89.0 25 0.00 29.89
2017/06/26 18:00 366 3.4 215 91.2 24 0.00 29.90
2017/06/26 17:00 615 5.8 205 91.5 14 0.00 29.92
2017/06/26 16:00 771 3.3 243 91.0 16 0.00 29.96
2017/06/26 15:00 867 4.4 240 88.9 25 0.00 30.00
2017/06/26 14:00 737 3.8 346 84.0 27 0.00 30.01
2017/06/26 13:00 385 6.2 355 81.1 36 0.00 30.04
2017/06/26 12:00 809 3.6 351 82.8 33 0.00 30.06
2017/06/26 11:00 829 4.1 5 78.4 33 0.00 30.07
2017/06/26 10:00 757 4.5 338 74.6 46 0.00 30.09
2017/06/26 09:00 590 3.2 330 69.5 49 0.00 30.11
2017/06/26 08:00 407 3.4 320 63.8 61 0.00 30.12
2017/06/26 07:00 228 3.2 323 58.9 76 0.00 30.13
2017/06/26 06:00 46 3.1 65 56.9 76 0.00 30.13
2017/06/26 05:00 1 4.9 331 55.7 68 0.00 30.12
2017/06/26 04:00 0 2.9 26 54.7 72 0.00 30.12
2017/06/26 03:00 0 3.0 59 57.8 83 0.00 30.12
2017/06/26 02:00 0 1.8 226 56.0 71 0.00 30.12